createdAt,value
2023-01-04T00:01:42.905Z,2.17
2023-01-04T00:04:13.474Z,1.33
2023-01-04T00:06:43.813Z,1.70
2023-01-04T00:09:14.295Z,1.73
2023-01-04T00:11:44.560Z,1.90
2023-01-04T00:14:15.719Z,1.83
2023-01-04T00:16:46.539Z,2.58
2023-01-04T00:19:17.384Z,2.00
2023-01-04T00:21:48.125Z,1.83
2023-01-04T00:24:19.163Z,1.83
2023-01-04T00:26:50.209Z,1.83
2023-01-04T00:29:21.469Z,2.17
2023-01-04T00:31:52.359Z,1.90
2023-01-04T00:34:26.154Z,1.98
2023-01-04T00:36:56.886Z,1.88
2023-01-04T00:39:28.057Z,2.20
2023-01-04T00:42:09.044Z,1.70
2023-01-04T00:44:39.457Z,1.98
2023-01-04T00:47:09.821Z,2.05
2023-01-04T00:49:40.129Z,2.03
2023-01-04T00:52:10.553Z,1.98
2023-01-04T00:54:41.012Z,1.88
2023-01-04T00:57:11.357Z,1.83
2023-01-04T00:59:41.724Z,2.15
2023-01-04T01:05:28.595Z,2.50
2023-01-04T01:07:59.033Z,2.20
2023-01-04T01:10:29.597Z,2.22
2023-01-04T01:13:00.023Z,2.65
2023-01-04T01:15:30.550Z,2.03
2023-01-04T01:18:01.349Z,2.95
2023-01-04T01:20:31.899Z,2.40
2023-01-04T01:23:02.246Z,2.47
2023-01-04T01:25:35.436Z,2.63
2023-01-04T01:28:05.814Z,2.95
2023-01-04T01:30:36.306Z,2.45
2023-01-04T01:33:06.652Z,2.45
2023-01-04T01:35:38.039Z,3.17
2023-01-04T01:38:08.666Z,3.10
2023-01-04T01:40:47.212Z,3.08
2023-01-04T01:43:45.393Z,2.90
2023-01-04T01:46:17.357Z,2.85
2023-01-04T01:48:48.151Z,2.78
2023-01-04T01:51:21.241Z,3.03
2023-01-04T01:53:56.520Z,3.65
2023-01-04T01:56:29.812Z,3.25
2023-01-04T01:59:02.185Z,4.00
2023-01-04T02:01:32.829Z,2.80
2023-01-04T02:04:03.607Z,3.03
2023-01-04T02:06:42.288Z,2.75
2023-01-04T02:09:12.912Z,2.15
2023-01-04T02:11:43.354Z,3.03
2023-01-04T02:14:30.405Z,2.70
2023-01-04T02:17:30.438Z,2.35
2023-01-04T02:20:07.204Z,2.10
2023-01-04T02:23:12.896Z,2.33
2023-01-04T02:26:05.246Z,2.20
2023-01-04T02:28:57.092Z,2.42
2023-01-04T02:31:39.321Z,1.90
2023-01-04T02:34:38.416Z,2.00
2023-01-04T02:37:20.828Z,2.00
2023-01-04T02:40:25.316Z,2.05
2023-01-04T02:43:27.096Z,1.88
2023-01-04T02:46:14.307Z,2.05
2023-01-04T02:49:04.177Z,2.35
2023-01-04T02:51:40.623Z,2.15
2023-01-04T02:54:18.198Z,1.85
2023-01-04T02:57:24.082Z,2.03
2023-01-04T03:00:03.713Z,2.30
2023-01-04T03:03:07.680Z,2.30
2023-01-04T03:06:20.489Z,2.20
2023-01-04T03:09:08.871Z,1.95
2023-01-04T03:12:23.781Z,2.05
2023-01-04T03:15:02.865Z,2.78
2023-01-04T03:18:06.747Z,2.03
2023-01-04T03:20:38.640Z,1.92
2023-01-04T03:23:35.092Z,2.03
2023-01-04T03:26:31.684Z,1.63
2023-01-04T03:29:28.077Z,1.50
2023-01-04T03:32:57.254Z,1.63
2023-01-04T03:36:02.164Z,1.50
2023-01-04T03:39:14.410Z,2.03
2023-01-04T03:42:09.547Z,1.60
2023-01-04T03:45:09.827Z,2.00
2023-01-04T03:48:37.314Z,1.38
2023-01-04T03:51:23.753Z,1.42
2023-01-04T03:54:19.165Z,1.38
2023-01-04T03:56:51.881Z,1.88
2023-01-04T03:59:25.056Z,1.50
2023-01-04T04:01:56.710Z,1.60
2023-01-04T04:04:46.380Z,1.90
2023-01-04T04:07:34.897Z,1.30
2023-01-04T04:10:06.375Z,1.50
2023-01-04T04:12:37.941Z,2.17
2023-01-04T04:15:10.115Z,1.40
2023-01-04T04:17:40.864Z,1.63
2023-01-04T04:20:13.847Z,1.65
2023-01-04T04:22:44.777Z,1.42
2023-01-04T04:25:16.891Z,1.20
2023-01-04T04:27:47.596Z,1.02
2023-01-04T04:30:19.688Z,1.08
2023-01-04T04:32:50.403Z,1.50
2023-01-04T04:35:22.248Z,1.33
2023-01-04T04:37:56.045Z,1.25
2023-01-04T04:40:44.727Z,1.13
2023-01-04T04:43:14.941Z,1.10
2023-01-04T04:45:45.813Z,1.20
2023-01-04T04:48:17.674Z,1.15
2023-01-04T04:50:48.345Z,1.10
2023-01-04T04:53:19.593Z,1.60
2023-01-04T04:55:52.998Z,1.60
2023-01-04T04:58:24.239Z,1.77
2023-01-04T05:00:55.442Z,3.60
2023-01-04T05:03:26.288Z,2.58
2023-01-04T05:05:57.337Z,3.33
2023-01-04T05:08:28.208Z,1.70
2023-01-04T05:10:58.890Z,1.90
2023-01-04T05:13:29.832Z,2.30
2023-01-04T05:16:00.525Z,2.78
2023-01-04T05:18:31.310Z,3.35
2023-01-04T05:21:04.929Z,3.97
2023-01-04T05:23:35.560Z,3.10
2023-01-04T05:26:07.553Z,2.60
2023-01-04T05:28:38.188Z,2.47
2023-01-04T05:31:08.753Z,2.60
2023-01-04T05:33:39.474Z,2.72
2023-01-04T05:36:10.101Z,2.88
2023-01-04T05:38:40.993Z,2.92
2023-01-04T05:41:31.416Z,4.40
2023-01-04T05:44:02.282Z,1.50
2023-01-04T05:46:33.455Z,1.60
2023-01-04T05:49:04.220Z,2.10
2023-01-04T05:51:34.919Z,3.45
2023-01-04T05:54:05.867Z,2.58
2023-01-04T05:56:36.482Z,1.60
2023-01-04T05:59:07.318Z,1.80
2023-01-04T06:01:39.137Z,1.08
2023-01-04T06:04:10.851Z,1.10
2023-01-04T06:06:42.677Z,1.05
2023-01-04T06:09:13.292Z,0.90
2023-01-04T06:11:45.809Z,1.00
2023-01-04T06:14:16.741Z,0.63
2023-01-04T06:16:48.839Z,0.47
2023-01-04T06:19:21.424Z,1.58
2023-01-04T06:21:52.413Z,0.70
2023-01-04T06:24:25.181Z,1.00
2023-01-04T06:26:56.108Z,0.70
2023-01-04T06:29:27.012Z,0.75
2023-01-04T06:31:58.275Z,0.60
2023-01-04T06:34:31.480Z,0.70
2023-01-04T06:37:02.553Z,0.57
2023-01-04T06:39:33.246Z,1.40
2023-01-04T06:42:06.884Z,1.10
2023-01-04T06:44:38.376Z,1.30
2023-01-04T06:47:10.036Z,0.80
2023-01-04T06:49:41.735Z,0.45
2023-01-04T06:52:12.350Z,0.50
2023-01-04T06:54:43.504Z,0.30
2023-01-04T06:57:14.605Z,0.40
2023-01-04T06:59:47.288Z,0.77
2023-01-04T07:02:19.057Z,1.30
2023-01-04T07:04:51.223Z,1.92
2023-01-04T07:07:23.268Z,2.33
2023-01-04T07:09:54.991Z,1.30
2023-01-04T07:12:26.500Z,0.70
2023-01-04T07:14:57.224Z,1.23
2023-01-04T07:17:30.130Z,1.90
2023-01-04T07:20:02.880Z,1.48
2023-01-04T07:22:35.027Z,1.63
2023-01-04T07:25:05.932Z,1.30
2023-01-04T07:27:37.007Z,0.40
2023-01-04T07:30:08.825Z,0.40
2023-01-04T07:32:39.578Z,1.10
2023-01-04T07:35:10.542Z,1.30
2023-01-04T07:37:42.369Z,1.10
2023-01-04T07:40:13.911Z,1.35
2023-01-04T07:42:44.625Z,1.73
2023-01-04T07:45:17.523Z,0.70
2023-01-04T07:47:48.893Z,1.25
2023-01-04T07:50:19.621Z,1.15
2023-01-04T07:52:51.799Z,0.45
2023-01-04T07:55:23.678Z,0.55
2023-01-04T07:57:56.843Z,1.10
2023-01-04T08:00:27.576Z,1.00
2023-01-04T08:03:00.359Z,0.40
2023-01-04T08:05:31.114Z,0.20
2023-01-04T08:08:02.287Z,0.80
2023-01-04T08:10:32.664Z,0.95
2023-01-04T08:13:03.408Z,0.47
2023-01-04T08:15:35.808Z,0.20
2023-01-04T08:18:08.522Z,0.20
2023-01-04T08:20:42.438Z,0.10
2023-01-04T08:23:13.313Z,0.40
2023-01-04T08:25:45.471Z,0.50
2023-01-04T08:28:16.158Z,0.60
2023-01-04T08:30:47.121Z,0.85
2023-01-04T08:33:19.472Z,0.60
2023-01-04T08:35:50.435Z,0.30
2023-01-04T08:38:59.496Z,0.30
2023-01-04T08:41:56.077Z,0.30
2023-01-04T08:44:17.467Z,0.22
2023-01-04T08:46:49.332Z,0.30
2023-01-04T08:49:20.942Z,0.40
2023-01-04T08:51:54.121Z,0.40
2023-01-04T08:54:26.470Z,0.20
2023-01-04T08:56:58.289Z,0.10
2023-01-04T08:59:28.991Z,0.10
2023-01-04T09:02:05.276Z,0.10
2023-01-04T09:07:07.787Z,0.20
2023-01-04T09:09:38.969Z,0.38
2023-01-04T09:12:09.943Z,0.10
2023-01-04T09:14:41.798Z,0.13
2023-01-04T09:17:12.585Z,0.20
2023-01-04T09:19:42.964Z,0.20
2023-01-04T09:22:13.779Z,0.55
2023-01-04T09:24:44.194Z,0.98
2023-01-04T09:27:14.691Z,0.57
2023-01-04T09:29:45.288Z,0.50
2023-01-04T09:32:16.920Z,0.52
2023-01-04T09:34:48.193Z,0.30
2023-01-04T09:37:18.914Z,0.30
2023-01-04T09:39:49.363Z,0.30
2023-01-04T09:42:42.362Z,0.20
2023-01-04T09:45:24.161Z,0.60
2023-01-04T09:47:58.522Z,0.60
2023-01-04T09:50:44.125Z,0.52
2023-01-04T09:53:31.007Z,0.30
2023-01-04T09:56:25.684Z,0.30
2023-01-04T09:58:57.448Z,0.20
2023-01-04T10:01:38.138Z,0.10
2023-01-04T10:04:32.175Z,0.00
2023-01-04T10:07:05.233Z,0.10
2023-01-04T10:09:37.058Z,0.00
2023-01-04T10:12:40.249Z,0.13
2023-01-04T10:15:39.509Z,0.20
2023-01-04T10:21:34.700Z,0.08
2023-01-04T10:24:17.676Z,0.10
2023-01-04T10:26:53.475Z,0.10
2023-01-04T10:29:50.637Z,0.10
2023-01-04T10:32:53.264Z,0.40
2023-01-04T10:35:27.714Z,0.40
2023-01-04T10:38:02.910Z,0.47
2023-01-04T10:40:42.364Z,0.40
2023-01-04T10:44:09.975Z,0.85
2023-01-04T10:46:59.476Z,0.20
2023-01-04T10:49:51.210Z,0.20
2023-01-04T10:53:16.660Z,0.38
2023-01-04T10:56:26.118Z,0.10
2023-01-04T10:59:13.741Z,0.17
2023-01-04T11:01:47.063Z,0.10
2023-01-04T11:04:46.818Z,0.10
2023-01-04T11:07:28.684Z,0.30
2023-01-04T11:10:25.563Z,0.10
2023-01-04T11:12:57.950Z,0.20
2023-01-04T11:15:29.006Z,0.10
2023-01-04T11:18:00.397Z,0.20
2023-01-04T11:20:36.116Z,0.10
2023-01-04T11:23:15.283Z,0.20
2023-01-04T11:26:08.184Z,0.10
2023-01-04T11:29:12.334Z,0.40
2023-01-04T11:31:51.284Z,0.10
2023-01-04T11:34:21.807Z,0.20
2023-01-04T11:36:52.106Z,0.10
2023-01-04T11:39:29.449Z,0.10
2023-01-04T11:42:03.658Z,0.22
2023-01-04T11:44:35.916Z,0.40
2023-01-04T11:47:23.364Z,0.38
2023-01-04T11:49:55.601Z,0.20
2023-01-04T11:52:38.460Z,0.40
2023-01-04T11:55:29.024Z,0.15
2023-01-04T11:58:10.493Z,0.10
2023-01-04T12:00:42.027Z,0.10
2023-01-04T12:03:34.875Z,0.20
2023-01-04T12:06:05.680Z,0.30
2023-01-04T12:08:37.564Z,0.38
2023-01-04T12:11:09.399Z,0.15
2023-01-04T12:13:41.348Z,0.20
2023-01-04T12:16:20.559Z,0.22
2023-01-04T12:18:51.199Z,0.10
2023-01-04T12:21:25.670Z,0.10
2023-01-04T12:23:58.912Z,0.10
2023-01-04T12:26:30.155Z,0.00
2023-01-04T12:29:24.709Z,0.00
2023-01-04T12:32:14.632Z,0.15
2023-01-04T12:34:47.993Z,0.10
2023-01-04T12:37:51.299Z,0.08
2023-01-04T12:40:49.500Z,0.20
2023-01-04T12:43:19.890Z,0.00
2023-01-04T12:46:10.527Z,0.10
2023-01-04T12:48:58.936Z,0.20
2023-01-04T12:51:31.510Z,0.10
2023-01-04T12:54:24.310Z,0.10
2023-01-04T12:57:37.340Z,0.35
2023-01-04T13:00:13.206Z,0.10
2023-01-04T13:02:54.081Z,0.28
2023-01-04T13:05:54.851Z,0.20
2023-01-04T13:08:17.063Z,0.40
2023-01-04T13:10:53.239Z,0.10
2023-01-04T13:13:38.492Z,0.20
2023-01-04T13:16:39.355Z,0.10
2023-01-04T13:19:25.859Z,0.20
2023-01-04T13:21:57.949Z,0.20
2023-01-04T13:24:36.283Z,0.20
2023-01-04T13:27:16.362Z,0.20
2023-01-04T13:29:48.243Z,0.30
2023-01-04T13:32:28.835Z,0.40
2023-01-04T13:35:15.997Z,0.20
2023-01-04T13:37:47.736Z,0.30
2023-01-04T13:40:30.762Z,0.28
2023-01-04T13:43:20.200Z,0.10
2023-01-04T13:46:05.799Z,0.10
2023-01-04T13:48:44.000Z,0.10
2023-01-04T13:51:32.213Z,0.00
2023-01-04T13:54:07.141Z,0.10
2023-01-04T13:56:38.026Z,0.08
2023-01-04T13:59:09.360Z,0.00
2023-01-04T14:01:54.818Z,0.08
2023-01-04T14:04:33.177Z,0.00
2023-01-04T14:07:04.381Z,0.20
2023-01-04T14:09:44.526Z,0.10
2023-01-04T14:12:20.872Z,0.00
2023-01-04T14:15:18.631Z,0.10
2023-01-04T14:17:57.406Z,0.17
2023-01-04T14:20:35.110Z,0.17
2023-01-04T14:23:06.767Z,0.10
2023-01-04T14:25:39.903Z,0.00
2023-01-04T14:28:23.413Z,0.00
2023-01-04T14:31:08.647Z,0.20
2023-01-04T14:33:44.921Z,0.10
2023-01-04T14:36:34.070Z,0.70
2023-01-04T14:39:12.997Z,0.10
2023-01-04T14:41:45.474Z,0.10
2023-01-04T14:44:19.379Z,0.00
2023-01-04T14:47:03.261Z,0.00
2023-01-04T14:49:51.578Z,0.00
2023-01-04T14:52:25.482Z,0.03
2023-01-04T14:54:55.813Z,0.03
2023-01-04T14:57:26.121Z,0.00
2023-01-04T14:59:56.556Z,0.20
2023-01-04T15:02:28.731Z,0.03
2023-01-04T15:04:59.160Z,0.03
2023-01-04T15:07:42.571Z,0.75
2023-01-04T15:10:28.275Z,0.20
2023-01-04T15:13:02.273Z,0.30
2023-01-04T15:15:34.825Z,0.20
2023-01-04T15:18:05.686Z,0.40
2023-01-04T15:20:36.289Z,0.30
2023-01-04T15:23:06.607Z,0.32
2023-01-04T15:25:37.156Z,0.75
2023-01-04T15:28:07.817Z,0.70
2023-01-04T15:30:38.157Z,0.55
2023-01-04T15:33:08.973Z,0.45
2023-01-04T15:35:39.536Z,0.45
2023-01-04T15:38:16.032Z,0.70
2023-01-04T15:40:49.252Z,1.20
2023-01-04T15:43:19.627Z,0.88
2023-01-04T15:45:50.019Z,0.60
2023-01-04T15:48:20.376Z,1.17
2023-01-04T15:50:51.142Z,0.98
2023-01-04T15:53:21.430Z,0.73
2023-01-04T15:55:54.128Z,1.05
2023-01-04T15:58:24.509Z,0.40
2023-01-04T16:01:02.591Z,0.50
2023-01-04T16:03:38.051Z,0.70
2023-01-04T16:06:10.340Z,0.82
2023-01-04T16:08:40.763Z,1.63
2023-01-04T16:11:16.766Z,0.60
2023-01-04T16:13:49.141Z,0.80
2023-01-04T16:16:20.825Z,0.40
2023-01-04T16:18:56.612Z,0.60
2023-01-04T16:21:29.125Z,1.13
2023-01-04T16:24:13.019Z,0.77
2023-01-04T16:26:52.608Z,0.70
2023-01-04T16:29:23.202Z,0.60
2023-01-04T16:31:53.495Z,0.70
2023-01-04T16:34:24.162Z,0.45
2023-01-04T16:36:54.486Z,1.30
2023-01-04T16:39:49.534Z,1.02
2023-01-04T16:42:16.495Z,0.75
2023-01-04T16:44:47.469Z,0.50
2023-01-04T16:47:17.918Z,0.50
2023-01-04T16:49:52.833Z,0.80
2023-01-04T16:52:23.469Z,0.70
2023-01-04T16:54:53.931Z,0.88
2023-01-04T16:57:25.647Z,0.50
2023-01-04T16:59:56.208Z,0.80
2023-01-04T17:02:26.609Z,0.88
2023-01-04T17:05:01.264Z,0.80
2023-01-04T17:07:34.479Z,0.73
2023-01-04T17:10:04.911Z,1.20
2023-01-04T17:12:50.475Z,0.95
2023-01-04T17:15:42.615Z,0.57
2023-01-04T17:18:14.359Z,0.55
2023-01-04T17:20:44.857Z,0.50
2023-01-04T17:23:16.805Z,0.73
2023-01-04T17:25:47.126Z,0.65
2023-01-04T17:28:22.862Z,1.25
2023-01-04T17:30:55.394Z,0.77
2023-01-04T17:33:25.732Z,0.70
2023-01-04T17:35:56.313Z,0.40
2023-01-04T17:38:32.908Z,0.93
2023-01-04T17:41:14.488Z,1.13
2023-01-04T17:43:46.342Z,0.70
2023-01-04T17:46:23.033Z,0.77
2023-01-04T17:49:20.984Z,0.63
2023-01-04T17:51:47.585Z,0.93
2023-01-04T17:54:18.267Z,0.70
2023-01-04T17:56:49.164Z,0.47
2023-01-04T17:59:19.843Z,0.60
2023-01-04T18:01:52.915Z,0.63
2023-01-04T18:04:24.023Z,0.80
2023-01-04T18:06:54.513Z,0.90
2023-01-04T18:09:26.794Z,0.70
2023-01-04T18:11:57.730Z,0.60
2023-01-04T18:14:29.341Z,1.02
2023-01-04T18:17:00.032Z,1.17
2023-01-04T18:19:32.927Z,0.70
2023-01-04T18:22:03.439Z,0.73
2023-01-04T18:24:37.129Z,0.75
2023-01-04T18:27:26.169Z,0.93
2023-01-04T18:29:58.840Z,0.70
2023-01-04T18:32:29.851Z,1.10
2023-01-04T18:35:06.087Z,0.70
2023-01-04T18:40:08.904Z,1.02
2023-01-04T18:42:39.545Z,0.60
2023-01-04T18:45:10.979Z,0.60
2023-01-04T18:47:42.178Z,0.85
2023-01-04T18:50:12.769Z,0.77
2023-01-04T18:52:43.052Z,0.70
2023-01-04T18:55:13.884Z,0.50
2023-01-04T18:57:44.265Z,0.70
2023-01-04T19:00:15.718Z,0.90
2023-01-04T19:02:46.054Z,0.70
2023-01-04T19:05:20.993Z,1.08
2023-01-04T19:07:53.818Z,0.60
2023-01-04T19:10:26.062Z,0.52
2023-01-04T19:12:56.508Z,0.60
2023-01-04T19:15:27.455Z,0.50
2023-01-04T19:18:00.579Z,0.93
2023-01-04T19:20:34.851Z,1.50
2023-01-04T19:23:06.085Z,0.90
2023-01-04T19:25:38.286Z,1.25
2023-01-04T19:28:09.623Z,0.65
2023-01-04T19:30:47.435Z,0.77
2023-01-04T19:33:19.591Z,0.60
2023-01-04T19:35:58.539Z,0.60
2023-01-04T19:38:32.707Z,0.80
2023-01-04T19:41:03.992Z,1.40
2023-01-04T19:43:36.540Z,0.80
2023-01-04T19:46:13.309Z,1.08
2023-01-04T19:48:44.650Z,0.85
2023-01-04T19:51:18.011Z,0.50
2023-01-04T19:53:49.182Z,0.68
2023-01-04T19:56:21.121Z,0.70
2023-01-04T19:58:51.505Z,0.90
2023-01-04T20:01:26.417Z,0.68
2023-01-04T20:03:58.408Z,0.70
2023-01-04T20:06:29.004Z,0.80
2023-01-04T20:08:59.274Z,0.47
2023-01-04T20:11:29.669Z,0.50
2023-01-04T20:14:07.971Z,1.00
2023-01-04T20:16:38.499Z,0.70
2023-01-04T20:19:10.475Z,0.60
2023-01-04T20:21:42.117Z,0.73
2023-01-04T20:24:12.507Z,0.60
2023-01-04T20:26:47.367Z,0.60
2023-01-04T20:29:17.926Z,0.52
2023-01-04T20:31:48.313Z,0.60
2023-01-04T20:34:18.581Z,0.95
2023-01-04T20:36:52.159Z,0.60
2023-01-04T20:39:22.433Z,0.50
2023-01-04T20:42:12.000Z,1.05
2023-01-04T20:44:43.285Z,0.80
2023-01-04T20:47:13.942Z,0.50
2023-01-04T20:49:44.202Z,0.60
2023-01-04T20:52:14.426Z,0.70
2023-01-04T20:54:45.362Z,0.60
2023-01-04T20:57:15.704Z,0.57
2023-01-04T20:59:46.974Z,0.57
2023-01-04T21:02:17.817Z,0.82
2023-01-04T21:04:48.662Z,0.52
2023-01-04T21:07:18.903Z,0.60
2023-01-04T21:09:49.755Z,0.50
2023-01-04T21:12:22.804Z,0.50
2023-01-04T21:14:53.142Z,0.75
2023-01-04T21:17:23.794Z,0.40
2023-01-04T21:19:54.058Z,0.57
2023-01-04T21:22:25.576Z,0.50
2023-01-04T21:24:55.825Z,0.60
2023-01-04T21:27:26.067Z,0.70
2023-01-04T21:29:56.840Z,1.13
2023-01-04T21:32:27.972Z,0.47
2023-01-04T21:34:58.936Z,0.40
2023-01-04T21:37:30.811Z,0.40
2023-01-04T21:40:06.435Z,0.50
2023-01-04T21:42:39.007Z,0.40
2023-01-04T21:45:10.287Z,0.50
2023-01-04T21:47:41.262Z,0.50
2023-01-04T21:50:16.751Z,0.57
2023-01-04T21:52:47.560Z,1.17
2023-01-04T21:55:17.928Z,0.50
2023-01-04T21:57:48.811Z,0.47
2023-01-04T22:00:19.233Z,0.75
2023-01-04T22:02:49.737Z,0.38
2023-01-04T22:05:20.616Z,0.30
2023-01-04T22:07:51.248Z,0.30
2023-01-04T22:10:23.864Z,0.35
2023-01-04T22:12:54.604Z,0.60
2023-01-04T22:15:25.024Z,0.60
2023-01-04T22:17:55.396Z,0.30
2023-01-04T22:20:26.407Z,0.20
2023-01-04T22:22:56.695Z,0.20
2023-01-04T22:25:27.019Z,0.30
2023-01-04T22:27:57.272Z,0.52
2023-01-04T22:30:27.622Z,0.38
2023-01-04T22:32:58.440Z,0.60
2023-01-04T22:35:28.775Z,0.20
2023-01-04T22:38:00.133Z,0.40
2023-01-04T22:40:32.025Z,0.22
2023-01-04T22:43:03.335Z,0.30
2023-01-04T22:45:33.803Z,0.38
2023-01-04T22:48:04.207Z,0.40
2023-01-04T22:50:35.162Z,0.50
2023-01-04T22:53:07.371Z,0.63
2023-01-04T22:56:09.400Z,0.40
2023-01-04T22:58:32.871Z,0.40
2023-01-04T23:01:03.324Z,0.45
2023-01-04T23:03:39.926Z,0.22
2023-01-04T23:06:14.587Z,0.20
2023-01-04T23:08:45.800Z,0.13
2023-01-04T23:11:21.331Z,0.35
2023-01-04T23:13:53.903Z,0.13
2023-01-04T23:16:31.585Z,0.40
2023-01-04T23:19:04.673Z,0.30
2023-01-04T23:21:37.970Z,0.63
2023-01-04T23:24:09.787Z,0.40
2023-01-04T23:26:40.301Z,0.20
2023-01-04T23:29:12.928Z,0.20
2023-01-04T23:31:44.277Z,0.20
2023-01-04T23:34:16.374Z,0.38
2023-01-04T23:36:46.881Z,0.28
2023-01-04T23:39:18.770Z,0.17
2023-01-04T23:41:50.947Z,0.20
2023-01-04T23:44:27.829Z,0.20
2023-01-04T23:49:32.815Z,0.30
2023-01-04T23:52:05.393Z,0.20
2023-01-04T23:54:37.235Z,0.20
2023-01-04T23:57:12.922Z,0.20
2023-01-04T23:59:43.813Z,0.30
